Time;durP1;ratioP1;P1;durP2;ratioP2;P2;SDS_P1;SDS_P2;PMS_P1;PMS_P2;Temp;Humidity;BMP_temperature;BMP_pressure;BME280_temperature;BME280_humidity;BME280_pressure;Samples;Min_cycle;Max_cycle;Signal;HPM_P1;HPM_P2
2021/01/02 00:01:18;;;;;;;17.92;6.63;;;153.90;1945.60;;;;;;5019704;28;20026;-64
2021/01/02 00:04:06;;;;;;;15.85;5.43;;;154.00;1945.60;;;;;;5019009;28;20037;-63
2021/01/02 00:06:52;;;;;;;14.77;6.00;;;153.90;1971.20;;;;;;5019950;28;20072;-63
2021/01/02 00:09:22;;;;;;;13.70;5.85;;;153.90;1945.60;;;;;;5019090;28;20351;-65
2021/01/02 00:12:26;;;;;;;12.30;5.03;;;153.90;1971.20;;;;;;5019312;28;20026;-66
2021/01/02 00:15:06;;;;;;;15.27;4.90;;;153.90;1971.20;;;;;;5019566;28;20033;-65
2021/01/02 00:17:35;;;;;;;8.60;4.20;;;153.90;1971.20;;;;;;5018962;28;20037;-65
2021/01/02 00:20:29;;;;;;;9.45;4.07;;;153.70;1971.20;;;;;;5017657;28;20029;-63
2021/01/02 00:22:58;;;;;;;8.63;4.05;;;153.70;1996.80;;;;;;5019381;28;20101;-64
2021/01/02 00:25:32;;;;;;;9.40;3.70;;;153.60;1996.80;;;;;;5018807;28;20071;-65
2021/01/02 00:28:17;;;;;;;16.38;7.88;;;153.60;1996.80;;;;;;5019635;28;20442;-64
2021/01/02 00:31:35;;;;;;;13.95;7.55;;;128.90;2022.40;;;;;;5019442;28;20025;-64
2021/01/02 00:34:22;;;;;;;10.75;6.93;;;128.90;2022.40;;;;;;4997127;28;20042;-65
2021/01/02 00:37:23;;;;;;;9.30;4.57;;;128.90;2022.40;;;;;;4997563;28;20042;-65
2021/01/02 00:40:05;;;;;;;13.52;4.40;;;128.90;2022.40;;;;;;4997094;28;20086;-65
2021/01/02 00:42:32;;;;;;;12.20;3.72;;;128.80;2022.40;;;;;;4996425;28;20038;-65
2021/01/02 00:45:00;;;;;;;11.73;4.25;;;128.80;2022.40;;;;;;4997384;28;20042;-66
2021/01/02 00:47:27;;;;;;;10.40;3.83;;;128.90;2022.40;;;;;;4997072;28;20324;-64
2021/01/02 00:49:56;;;;;;;8.73;3.80;;;128.90;2022.40;;;;;;4997010;28;20575;-64
2021/01/02 00:52:40;;;;;;;8.10;3.72;;;153.60;2022.40;;;;;;4997186;28;20045;-65
2021/01/02 00:55:24;;;;;;;9.88;3.60;;;153.60;1996.80;;;;;;4996990;28;20138;-64
2021/01/02 00:57:55;;;;;;;8.40;3.70;;;153.60;1996.80;;;;;;4996792;28;20451;-65
2021/01/02 01:00:24;;;;;;;11.70;3.53;;;153.70;1996.80;;;;;;4996678;28;20026;-65
2021/01/02 01:03:06;;;;;;;9.25;3.65;;;153.70;1971.20;;;;;;4996893;28;20046;-66
2021/01/02 01:05:37;;;;;;;9.63;3.72;;;153.70;1971.20;;;;;;4997018;28;20034;-66
2021/01/02 01:08:06;;;;;;;11.32;3.78;;;153.80;1971.20;;;;;;4996768;28;20420;-64
2021/01/02 01:10:34;;;;;;;13.80;3.80;;;153.70;1971.20;;;;;;5015726;28;20435;-65
2021/01/02 01:13:06;;;;;;;12.63;3.92;;;153.60;1996.80;;;;;;5018462;28;20041;-65
2021/01/02 01:15:34;;;;;;;6.38;3.50;;;153.60;1996.80;;;;;;5018234;28;20022;-64
2021/01/02 01:18:26;;;;;;;8.82;3.50;;;128.90;1996.80;;;;;;5018662;28;20030;-65
2021/01/02 01:21:00;;;;;;;8.20;2.80;;;128.90;1996.80;;;;;;5018678;28;20034;-64
2021/01/02 01:23:31;;;;;;;10.95;3.83;;;128.90;1996.80;;;;;;5018556;28;20030;-66
2021/01/02 01:26:30;;;;;;;8.25;3.92;;;128.90;1996.80;;;;;;5018236;28;20029;-64
2021/01/02 01:28:58;;;;;;;14.93;4.10;;;128.90;1996.80;;;;;;5017684;28;20486;-64
2021/01/02 01:31:28;;;;;;;7.68;3.88;;;128.80;2022.40;;;;;;5017864;28;20351;-64
2021/01/02 01:33:59;;;;;;;11.45;4.95;;;128.80;2022.40;;;;;;5018213;28;20029;-64
2021/01/02 01:36:35;;;;;;;10.40;4.82;;;128.70;2022.40;;;;;;5017592;28;20077;-65
2021/01/02 01:39:04;;;;;;;8.32;4.50;;;128.80;2022.40;;;;;;5018178;28;20419;-64
2021/01/02 01:41:36;;;;;;;8.90;3.65;;;128.80;2022.40;;;;;;5017672;28;20386;-63
2021/01/02 01:44:12;;;;;;;7.25;3.78;;;128.80;2022.40;;;;;;5017732;28;20030;-65
2021/01/02 01:46:50;;;;;;;10.70;4.18;;;128.80;2022.40;;;;;;5017830;28;20079;-64
2021/01/02 01:49:31;;;;;;;8.33;4.20;;;128.80;2022.40;;;;;;5017972;28;20036;-66
2021/01/02 01:52:03;;;;;;;17.88;5.38;;;128.60;2048.00;;;;;;5017996;28;20112;-64
2021/01/02 01:55:00;;;;;;;11.45;3.83;;;128.50;2048.00;;;;;;5018135;28;20315;-65
2021/01/02 01:57:27;;;;;;;7.68;3.97;;;128.50;2048.00;;;;;;5017527;28;20026;-64
2021/01/02 01:59:55;;;;;;;9.40;4.32;;;128.50;2048.00;;;;;;5018040;28;20021;-64
2021/01/02 02:02:29;;;;;;;13.07;4.40;;;128.60;2048.00;;;;;;5017571;28;20045;-64
2021/01/02 02:05:05;;;;;;;10.82;5.10;;;128.70;2022.40;;;;;;5017451;28;20037;-65
2021/01/02 02:08:01;;;;;;;13.68;4.95;;;128.70;2022.40;;;;;;5017628;28;20025;-63
2021/01/02 02:10:32;;;;;;;13.68;5.05;;;128.70;2022.40;;;;;;5014512;28;20045;-64
2021/01/02 02:13:03;;;;;;;15.63;5.45;;;128.70;2022.40;;;;;;5017548;28;20030;-64
2021/01/02 02:15:29;;;;;;;12.32;5.40;;;128.60;2022.40;;;;;;5017313;28;20398;-64
2021/01/02 02:18:22;;;;;;;15.38;5.85;;;128.60;2022.40;;;;;;5017244;28;20028;-64
2021/01/02 02:20:52;;;;;;;14.77;5.00;;;128.60;2048.00;;;;;;5014987;28;20416;-65
2021/01/02 02:23:26;;;;;;;13.63;5.40;;;128.40;2073.60;;;;;;5017367;28;20033;-65
2021/01/02 02:26:07;;;;;;;14.23;5.50;;;128.50;2048.00;;;;;;5017531;28;20558;-65
2021/01/02 02:28:35;;;;;;;12.57;5.03;;;128.50;2048.00;;;;;;5017362;28;20331;-64
2021/01/02 02:31:05;;;;;;;12.82;5.30;;;128.50;2048.00;;;;;;5017173;28;20061;-64
2021/01/02 02:33:31;;;;;;;13.93;6.00;;;128.50;2048.00;;;;;;5017372;28;20034;-64
2021/01/02 02:35:59;;;;;;;11.65;5.18;;;128.50;2048.00;;;;;;5017603;28;20025;-65
2021/01/02 02:38:25;;;;;;;12.18;4.65;;;128.50;2048.00;;;;;;5016879;28;20133;-63
2021/01/02 02:40:51;;;;;;;10.05;4.30;;;128.50;2048.00;;;;;;5017541;28;20127;-67
2021/01/02 02:43:19;;;;;;;8.50;4.40;;;128.50;2022.40;;;;;;5016931;28;20386;-66
2021/01/02 02:45:51;;;;;;;11.25;4.00;;;128.50;2022.40;;;;;;5016605;28;20416;-66
2021/01/02 02:48:19;;;;;;;10.20;4.32;;;128.50;2048.00;;;;;;5016969;28;20308;-63
2021/01/02 02:50:50;;;;;;;11.00;4.80;;;128.40;2022.40;;;;;;5016907;28;20105;-64
2021/01/02 02:53:16;;;;;;;9.52;4.82;;;128.30;2048.00;;;;;;5017286;28;20091;-64
2021/01/02 02:55:43;;;;;;;6.75;3.78;;;128.30;2048.00;;;;;;5016581;28;20389;-64
2021/01/02 02:58:10;;;;;;;15.07;5.15;;;128.30;2048.00;;;;;;5016882;28;20383;-65
2021/01/02 03:00:37;;;;;;;6.65;3.13;;;128.30;2048.00;;;;;;5016933;28;20022;-63
2021/01/02 03:03:07;;;;;;;7.80;3.30;;;128.40;2048.00;;;;;;5016975;28;20093;-64
2021/01/02 03:05:33;;;;;;;7.55;3.40;;;128.20;2073.60;;;;;;5019754;28;20064;-64
2021/01/02 03:08:01;;;;;;;7.88;3.55;;;128.20;2048.00;;;;;;5020812;28;20026;-66
2021/01/02 03:10:27;;;;;;;7.07;3.35;;;128.30;2048.00;;;;;;5020776;28;20025;-66
2021/01/02 03:12:53;;;;;;;5.93;3.45;;;128.30;2048.00;;;;;;5020708;28;20034;-65
2021/01/02 03:15:26;;;;;;;6.18;2.97;;;128.40;2022.40;;;;;;5020574;28;20018;-63
2021/01/02 03:17:53;;;;;;;7.07;3.67;;;128.40;2022.40;;;;;;5020406;28;20430;-64
2021/01/02 03:20:19;;;;;;;9.30;3.88;;;128.40;2022.40;;;;;;5020046;28;20079;-64
2021/01/02 03:22:47;;;;;;;4.55;2.60;;;128.40;2022.40;;;;;;5020737;28;20075;-67
2021/01/02 03:25:15;;;;;;;9.25;3.28;;;128.30;2022.40;;;;;;5020513;28;20034;-64
2021/01/02 03:27:42;;;;;;;5.43;2.45;;;128.40;2022.40;;;;;;5020512;28;20079;-65
2021/01/02 03:30:10;;;;;;;5.15;2.72;;;128.30;2022.40;;;;;;5020464;28;20037;-64
2021/01/02 03:32:37;;;;;;;7.93;3.45;;;128.40;1996.80;;;;;;5020437;28;20034;-66
2021/01/02 03:35:11;;;;;;;12.32;3.45;;;128.30;2022.40;;;;;;5020119;28;20032;-65
2021/01/02 03:37:38;;;;;;;13.07;4.03;;;128.30;2022.40;;;;;;5020592;28;20112;-64
2021/01/02 03:40:06;;;;;;;8.48;3.40;;;128.20;2022.40;;;;;;5020602;28;20054;-65
2021/01/02 03:42:36;;;;;;;7.00;3.33;;;128.20;2022.40;;;;;;5019820;28;20026;-64
2021/01/02 03:45:03;;;;;;;9.10;2.90;;;128.20;2022.40;;;;;;5020514;28;20304;-63
2021/01/02 03:47:28;;;;;;;14.00;3.67;;;128.20;2022.40;;;;;;5020389;28;20025;-65
2021/01/02 03:49:54;;;;;;;6.68;2.80;;;128.30;2022.40;;;;;;5019564;28;20021;-65
2021/01/02 03:52:20;;;;;;;5.47;2.60;;;128.30;2022.40;;;;;;5020329;28;20045;-64
2021/01/02 03:54:46;;;;;;;9.25;3.10;;;128.30;1996.80;;;;;;5020240;28;20096;-65
2021/01/02 03:57:12;;;;;;;9.25;4.13;;;128.30;1996.80;;;;;;5019905;28;20014;-63
2021/01/02 03:59:37;;;;;;;11.98;3.15;;;128.30;1996.80;;;;;;5019895;28;20106;-64
2021/01/02 04:02:03;;;;;;;6.85;2.30;;;128.30;1996.80;;;;;;5019754;28;20053;-64
2021/01/02 04:04:29;;;;;;;6.40;2.70;;;128.30;1996.80;;;;;;5019817;28;20030;-63
2021/01/02 04:06:55;;;;;;;8.38;2.88;;;128.30;1996.80;;;;;;5019719;28;20022;-64
2021/01/02 04:09:21;;;;;;;5.43;2.45;;;128.30;1996.80;;;;;;5019451;28;20434;-65
2021/01/02 04:11:49;;;;;;;9.48;2.80;;;128.30;1996.80;;;;;;5019632;28;20033;-65
2021/01/02 04:14:15;;;;;;;4.63;1.97;;;128.20;1996.80;;;;;;5019577;28;20032;-64
2021/01/02 04:16:42;;;;;;;6.70;2.50;;;128.20;1996.80;;;;;;5019516;28;20430;-66
2021/01/02 04:19:09;;;;;;;6.10;2.60;;;128.10;2022.40;;;;;;5019514;28;20026;-66
2021/01/02 04:21:35;;;;;;;6.28;2.55;;;128.10;2022.40;;;;;;5019380;28;20430;-65
2021/01/02 04:24:04;;;;;;;4.45;2.60;;;128.00;2022.40;;;;;;5019150;28;20034;-64
2021/01/02 04:26:30;;;;;;;10.60;2.72;;;103.30;2022.40;;;;;;5019654;28;20437;-64
2021/01/02 04:28:56;;;;;;;6.22;2.22;;;103.20;2022.40;;;;;;5019084;28;20109;-63
2021/01/02 04:31:30;;;;;;;6.60;3.10;;;103.20;2022.40;;;;;;5018729;28;20062;-65
2021/01/02 04:33:56;;;;;;;8.88;3.38;;;103.20;2022.40;;;;;;5019604;28;20117;-63
2021/01/02 04:36:22;;;;;;;6.25;2.95;;;103.10;2022.40;;;;;;5019173;28;20030;-64
2021/01/02 04:38:48;;;;;;;11.77;3.55;;;103.10;2048.00;;;;;;5018821;28;20375;-65
2021/01/02 04:41:14;;;;;;;8.07;3.22;;;103.00;2048.00;;;;;;5019319;28;20477;-65
2021/01/02 04:43:48;;;;;;;10.05;3.60;;;103.00;2048.00;;;;;;5019052;28;20038;-65
2021/01/02 04:46:15;;;;;;;11.48;3.83;;;103.00;2048.00;;;;;;5018666;28;20022;-63
2021/01/02 04:48:45;;;;;;;10.07;3.20;;;103.10;2022.40;;;;;;5018681;28;20343;-64
2021/01/02 04:51:13;;;;;;;6.70;2.90;;;103.10;2022.40;;;;;;5018667;28;20061;-63
2021/01/02 04:53:39;;;;;;;8.15;3.15;;;103.20;1996.80;;;;;;5019043;28;20025;-63
2021/01/02 04:56:06;;;;;;;6.05;2.53;;;103.30;1996.80;;;;;;5018828;28;20379;-63
2021/01/02 04:58:35;;;;;;;5.20;2.65;;;128.00;1996.80;;;;;;5018541;28;20080;-64
2021/01/02 05:01:04;;;;;;;8.27;2.70;;;128.10;1996.80;;;;;;5018987;28;20021;-64
2021/01/02 05:03:34;;;;;;;5.10;2.37;;;128.10;1996.80;;;;;;5018933;28;20040;-62
2021/01/02 05:06:03;;;;;;;5.45;3.03;;;128.20;1971.20;;;;;;5018887;28;20263;-63
2021/01/02 05:08:33;;;;;;;7.88;3.45;;;128.40;1945.60;;;;;;5018647;28;20113;-65
2021/01/02 05:11:08;;;;;;;10.98;3.05;;;128.40;1945.60;;;;;;5017965;28;20030;-63
2021/01/02 05:13:38;;;;;;;5.70;2.13;;;128.40;1945.60;;;;;;5018161;28;20383;-63
2021/01/02 05:16:41;;;;;;;5.43;2.13;;;128.40;1945.60;;;;;;5018720;28;20025;-64
2021/01/02 05:19:12;;;;;;;6.47;2.05;;;128.60;1945.60;;;;;;4995843;28;20038;-64
2021/01/02 05:21:44;;;;;;;5.30;2.58;;;128.60;1920.00;;;;;;4996668;28;20037;-65
2021/01/02 05:24:11;;;;;;;5.25;2.50;;;128.60;1920.00;;;;;;4996708;28;20363;-65
2021/01/02 05:26:42;;;;;;;7.03;3.38;;;128.60;1945.60;;;;;;4996322;28;20118;-64
2021/01/02 05:29:11;;;;;;;7.68;2.70;;;128.50;1945.60;;;;;;4996054;28;20034;-65
2021/01/02 05:31:41;;;;;;;17.27;8.85;;;128.40;1971.20;;;;;;4996278;28;20038;-63
2021/01/02 05:34:08;;;;;;;61.97;29.67;;;128.50;1945.60;;;;;;4995722;28;20463;-64
2021/01/02 05:36:35;;;;;;;34.63;16.88;;;128.50;1945.60;;;;;;4996180;28;20049;-64
2021/01/02 05:39:00;;;;;;;4.43;2.10;;;128.60;1945.60;;;;;;4996058;28;20053;-64
2021/01/02 05:41:27;;;;;;;5.80;1.70;;;128.80;1920.00;;;;;;4995082;28;20034;-66
2021/01/02 05:44:10;;;;;;;4.10;1.50;;;128.90;1894.40;;;;;;4995928;28;20483;-65
2021/01/02 05:46:46;;;;;;;4.63;1.50;;;153.60;1894.40;;;;;;4994957;28;20034;-65
2021/01/02 05:49:36;;;;;;;2.72;1.25;;;153.70;1868.80;;;;;;4995970;28;20101;-63
2021/01/02 05:52:08;;;;;;;6.53;1.25;;;153.90;1843.20;;;;;;4996265;28;20042;-63
2021/01/02 05:54:36;;;;;;;87.90;38.47;;;154.10;1843.20;;;;;;4999653;28;20049;-64
2021/01/02 05:57:05;;;;;;;6.77;3.53;;;154.30;1817.60;;;;;;5018075;28;20033;-64
2021/01/02 05:59:32;;;;;;;4.55;2.28;;;154.50;1792.00;;;;;;5017779;28;20256;-65
2021/01/02 06:02:17;;;;;;;22.67;14.32;;;154.50;1792.00;;;;;;5017684;28;20034;-64
2021/01/02 06:04:59;;;;;;;180.52;74.22;;;154.50;1792.00;;;;;;5017944;28;20033;-64
2021/01/02 06:07:26;;;;;;;362.55;188.52;;;154.50;1792.00;;;;;;5017904;28;20330;-64
2021/01/02 06:09:52;;;;;;;23.55;16.95;;;179.20;1792.00;;;;;;5017052;28;20029;-64
2021/01/02 06:12:24;;;;;;;9.23;7.95;;;154.50;1792.00;;;;;;5017255;28;20394;-63
2021/01/02 06:14:53;;;;;;;31.83;28.48;;;179.20;1792.00;;;;;;5017406;28;20041;-65
2021/01/02 06:17:28;;;;;;;12.70;11.23;;;179.20;1766.40;;;;;;5016937;28;20025;-64
2021/01/02 06:19:54;;;;;;;5.70;4.50;;;179.40;1766.40;;;;;;5017221;28;20036;-65
2021/01/02 06:22:20;;;;;;;7.55;5.40;;;179.50;1740.80;;;;;;5017378;28;20037;-65
2021/01/02 06:24:50;;;;;;;5.32;4.10;;;179.50;1766.40;;;;;;5017477;28;20032;-63
2021/01/02 06:27:17;;;;;;;6.65;4.53;;;179.60;1740.80;;;;;;5017549;28;20025;-65
2021/01/02 06:29:49;;;;;;;8.48;3.55;;;179.60;1766.40;;;;;;5017161;28;20446;-63
2021/01/02 06:32:15;;;;;;;3.67;1.90;;;179.70;1715.20;;;;;;5017113;28;20057;-64
2021/01/02 06:34:41;;;;;;;3.97;2.55;;;179.80;1715.20;;;;;;5017072;28;20030;-65
2021/01/02 06:37:07;;;;;;;3.72;2.55;;;179.90;1715.20;;;;;;5017114;28;20026;-63
2021/01/02 06:39:34;;;;;;;4.90;1.80;;;179.90;1715.20;;;;;;5017845;28;20064;-65
2021/01/02 06:42:01;;;;;;;12.95;8.65;;;179.90;1715.20;;;;;;5019796;28;20034;-63
2021/01/02 06:44:45;;;;;;;6.00;3.40;;;179.90;1740.80;;;;;;5019327;28;20419;-64
2021/01/02 06:47:22;;;;;;;11.20;8.85;;;179.70;1766.40;;;;;;5020125;28;20018;-64
2021/01/02 06:49:52;;;;;;;21.88;15.52;;;179.60;1817.60;;;;;;5020191;28;20026;-65
2021/01/02 06:52:37;;;;;;;8.63;5.00;;;179.40;1817.60;;;;;;5019942;28;20036;-63
2021/01/02 06:55:37;;;;;;;26.08;11.02;;;179.20;1868.80;;;;;;5019793;28;20116;-65
2021/01/02 06:58:17;;;;;;;19.23;10.30;;;154.40;1894.40;;;;;;4958845;29;20042;-63
2021/01/02 07:00:43;;;;;;;14.68;6.45;;;154.40;1868.80;;;;;;4959256;29;20087;-66
2021/01/02 07:03:46;;;;;;;11.88;7.65;;;154.40;1868.80;;;;;;4959179;29;20031;-66
2021/01/02 07:06:18;;;;;;;8.07;4.03;;;154.50;1894.40;;;;;;4955618;29;20044;-65
2021/01/02 07:08:57;;;;;;;12.15;8.82;;;179.20;1843.20;;;;;;4958858;29;20344;-64
2021/01/02 07:11:22;;;;;;;10.70;6.32;;;179.20;1868.80;;;;;;4958933;29;20031;-65
2021/01/02 07:13:49;;;;;;;17.35;9.98;;;179.20;1868.80;;;;;;4958533;29;20046;-64
2021/01/02 07:16:36;;;;;;;8.10;4.95;;;179.20;1894.40;;;;;;4958799;29;20031;-65
2021/01/02 07:19:03;;;;;;;11.80;7.90;;;154.50;1894.40;;;;;;4958527;29;20432;-64
2021/01/02 07:21:36;;;;;;;12.80;6.10;;;179.20;1894.40;;;;;;4958657;29;20046;-64
2021/01/02 07:24:23;;;;;;;9.50;4.90;;;179.20;1894.40;;;;;;4959001;29;20062;-66
2021/01/02 07:26:56;;;;;;;11.55;6.00;;;179.40;1868.80;;;;;;4958413;29;20039;-65
2021/01/02 07:29:22;;;;;;;10.40;7.15;;;179.40;1894.40;;;;;;4958959;29;20043;-64
2021/01/02 07:31:48;;;;;;;7.60;4.03;;;179.50;1868.80;;;;;;4958545;29;20035;-64
2021/01/02 07:34:22;;;;;;;11.15;4.30;;;179.70;1817.60;;;;;;5004777;28;20068;-66
2021/01/02 07:36:49;;;;;;;15.23;7.13;;;179.80;1817.60;;;;;;5019461;28;20068;-66
2021/01/02 07:39:18;;;;;;;6.17;3.67;;;179.90;1817.60;;;;;;4990808;28;832123;-64
2021/01/02 07:41:44;;;;;;;9.75;7.82;;;180.00;1792.00;;;;;;5020381;28;20042;-65
2021/01/02 07:44:11;;;;;;;7.03;5.03;;;180.10;1792.00;;;;;;5020184;28;20033;-65
2021/01/02 07:46:45;;;;;;;9.57;6.13;;;204.90;1740.80;;;;;;5018912;28;20354;-64
2021/01/02 07:49:11;;;;;;;8.52;5.05;;;205.10;1715.20;;;;;;5020458;28;20029;-66
2021/01/02 07:51:40;;;;;;;8.48;4.00;;;205.20;1715.20;;;;;;5019882;28;20030;-66
2021/01/02 07:54:06;;;;;;;13.27;7.38;;;205.30;1715.20;;;;;;5019798;28;20427;-65
2021/01/02 07:56:33;;;;;;;12.63;8.18;;;205.30;1715.20;;;;;;5019930;28;20033;-64
2021/01/02 07:59:17;;;;;;;14.50;8.27;;;205.40;1715.20;;;;;;5020223;28;20022;-63
2021/01/02 08:01:48;;;;;;;11.25;6.15;;;205.30;1740.80;;;;;;5019827;28;20022;-64
2021/01/02 08:04:14;;;;;;;18.13;11.07;;;205.40;1664.00;;;;;;5019911;28;20498;-64
2021/01/02 08:06:48;;;;;;;24.33;17.73;;;205.60;1664.00;;;;;;5019509;28;20061;-65
2021/01/02 08:09:14;;;;;;;17.27;10.93;;;205.60;1715.20;;;;;;5019544;28;20053;-66
2021/01/02 08:11:53;;;;;;;11.85;7.88;;;205.60;1664.00;;;;;;5019996;28;20450;-65
2021/01/02 08:14:20;;;;;;;38.42;26.52;;;205.60;1740.80;;;;;;5019924;28;20407;-65
2021/01/02 08:16:54;;;;;;;42.67;31.10;;;205.40;1766.40;;;;;;5019588;28;20415;-64
2021/01/02 08:19:20;;;;;;;28.08;19.85;;;205.40;1766.40;;;;;;5019696;28;20340;-64
2021/01/02 08:21:46;;;;;;;7.55;5.97;;;205.50;1792.00;;;;;;5018900;28;20029;-64
2021/01/02 08:24:13;;;;;;;5.78;4.22;;;205.70;1664.00;;;;;;5019445;28;20415;-65
2021/01/02 08:26:39;;;;;;;6.13;3.40;;;230.40;1638.40;;;;;;5019088;28;20064;-64
2021/01/02 08:29:06;;;;;;;9.25;4.13;;;230.60;1638.40;;;;;;5019017;28;20048;-66
2021/01/02 08:31:35;;;;;;;4.40;2.97;;;230.70;1612.80;;;;;;5019575;28;20029;-64
2021/01/02 08:34:03;;;;;;;7.07;4.25;;;230.90;1561.60;;;;;;5019263;28;20018;-64
2021/01/02 08:36:29;;;;;;;6.18;2.70;;;231.00;1612.80;;;;;;5018553;28;20025;-64
2021/01/02 08:39:02;;;;;;;8.43;4.80;;;231.00;1561.60;;;;;;5019133;28;20057;-65
2021/01/02 08:41:28;;;;;;;9.05;5.38;;;231.10;1587.20;;;;;;5019091;28;20026;-64
2021/01/02 08:43:55;;;;;;;6.10;3.75;;;231.00;1612.80;;;;;;5019005;28;20037;-65
2021/01/02 08:46:23;;;;;;;20.00;9.52;;;231.00;1587.20;;;;;;5018605;28;20021;-64
2021/01/02 08:48:50;;;;;;;12.80;6.30;;;231.00;1638.40;;;;;;5018831;28;20399;-67
2021/01/02 08:51:22;;;;;;;11.35;6.18;;;231.00;1638.40;;;;;;5018512;28;20061;-64
2021/01/02 08:53:48;;;;;;;13.35;6.28;;;230.90;1638.40;;;;;;5018701;28;20026;-65
2021/01/02 08:56:25;;;;;;;6.93;3.47;;;231.10;1638.40;;;;;;5018867;28;20026;-64
2021/01/02 08:58:51;;;;;;;12.18;4.25;;;231.20;1612.80;;;;;;5019072;28;20033;-66
2021/01/02 09:01:18;;;;;;;8.20;4.78;;;231.30;1587.20;;;;;;5018633;28;20018;-67
2021/01/02 09:03:43;;;;;;;11.90;6.95;;;231.30;1561.60;;;;;;5017688;28;20049;-63
2021/01/02 09:06:25;;;;;;;9.75;5.18;;;256.00;1587.20;;;;;;5018634;28;20411;-64
2021/01/02 09:09:06;;;;;;;13.00;7.70;;;231.30;1638.40;;;;;;5018681;28;20040;-64
2021/01/02 09:11:51;;;;;;;10.13;6.40;;;231.30;1664.00;;;;;;5018666;28;20334;-64
2021/01/02 09:14:19;;;;;;;5.88;3.38;;;231.30;1587.20;;;;;;5018275;28;20072;-65
2021/01/02 09:17:04;;;;;;;5.03;2.50;;;256.00;1561.60;;;;;;5018781;28;20095;-64
2021/01/02 09:19:30;;;;;;;6.10;3.00;;;256.20;1536.00;;;;;;5018787;28;20399;-64
2021/01/02 09:21:57;;;;;;;10.98;4.60;;;256.30;1510.40;;;;;;5018308;28;20036;-64
2021/01/02 09:24:24;;;;;;;9.52;4.60;;;256.40;1561.60;;;;;;5017742;28;20115;-68
2021/01/02 09:26:50;;;;;;;13.75;3.00;;;256.40;1561.60;;;;;;5018549;28;20026;-66
2021/01/02 09:29:18;;;;;;;5.15;2.80;;;256.40;1536.00;;;;;;5018002;28;20495;-65
2021/01/02 09:31:44;;;;;;;6.30;2.88;;;256.50;1484.80;;;;;;5014643;28;20325;-65
2021/01/02 09:34:11;;;;;;;5.65;2.97;;;256.60;1510.40;;;;;;5017904;28;20034;-67
2021/01/02 09:36:37;;;;;;;4.82;2.65;;;256.70;1484.80;;;;;;5016856;28;20022;-64
2021/01/02 09:39:05;;;;;;;6.03;3.15;;;256.80;1510.40;;;;;;5017056;28;20054;-65
2021/01/02 09:41:31;;;;;;;9.02;4.93;;;256.80;1510.40;;;;;;5015580;28;20037;-66
2021/01/02 09:43:58;;;;;;;5.95;3.35;;;256.80;1536.00;;;;;;5016075;28;20034;-65
2021/01/02 09:46:27;;;;;;;7.05;3.70;;;256.80;1484.80;;;;;;5016175;28;20063;-66
2021/01/02 09:48:55;;;;;;;16.73;6.15;;;256.80;1561.60;;;;;;5017967;28;20030;-65
2021/01/02 09:51:24;;;;;;;6.68;3.40;;;256.90;1484.80;;;;;;5016296;28;20041;-65
2021/01/02 09:53:51;;;;;;;7.00;4.50;;;281.60;1484.80;;;;;;5016512;28;20030;-64
2021/01/02 09:56:17;;;;;;;6.97;3.63;;;281.60;1561.60;;;;;;5016639;28;20025;-64
2021/01/02 09:58:43;;;;;;;5.03;3.17;;;281.60;1536.00;;;;;;5018087;28;20037;-66
2021/01/02 10:01:09;;;;;;;11.85;6.60;;;281.70;1459.20;;;;;;5015795;28;20021;-66
2021/01/02 10:03:35;;;;;;;8.45;5.45;;;281.90;1484.80;;;;;;5017615;28;20034;-64
2021/01/02 10:06:03;;;;;;;8.90;5.82;;;282.00;1484.80;;;;;;5016882;28;20095;-65
2021/01/02 10:08:29;;;;;;;12.50;6.60;;;282.00;1484.80;;;;;;5012792;28;20022;-65
2021/01/02 10:10:55;;;;;;;9.32;4.50;;;282.10;1510.40;;;;;;5015693;28;20030;-65
2021/01/02 10:13:21;;;;;;;18.80;5.47;;;282.20;1484.80;;;;;;5014752;28;20597;-64
2021/01/02 10:15:48;;;;;;;8.85;4.78;;;282.20;1459.20;;;;;;5013730;28;20040;-66
2021/01/02 10:18:14;;;;;;;20.20;12.88;;;282.40;1433.60;;;;;;5014561;28;20060;-64
2021/01/02 10:20:40;;;;;;;11.25;6.43;;;282.40;1459.20;;;;;;5014830;28;20056;-63
2021/01/02 10:23:06;;;;;;;13.00;8.68;;;282.50;1433.60;;;;;;5010594;28;20466;-64
2021/01/02 10:25:31;;;;;;;10.35;6.72;;;282.50;1433.60;;;;;;5014903;28;20136;-65
2021/01/02 10:27:57;;;;;;;13.48;7.30;;;307.20;1459.20;;;;;;5013741;28;20030;-65
2021/01/02 10:30:23;;;;;;;14.35;8.85;;;307.20;1459.20;;;;;;5014564;28;20386;-66
2021/01/02 10:32:49;;;;;;;18.05;10.35;;;307.30;1459.20;;;;;;5011559;28;20080;-64
2021/01/02 10:35:16;;;;;;;31.15;16.98;;;307.30;1433.60;;;;;;5015284;28;20034;-67
2021/01/02 10:37:45;;;;;;;20.98;14.00;;;307.50;1459.20;;;;;;5015488;28;20022;-66
2021/01/02 10:40:11;;;;;;;12.30;7.13;;;307.50;1459.20;;;;;;5015460;28;20069;-64
2021/01/02 10:42:37;;;;;;;12.30;8.52;;;307.50;1459.20;;;;;;5014194;28;20029;-64
2021/01/02 10:45:04;;;;;;;9.55;5.68;;;307.50;1433.60;;;;;;5013138;28;20040;-65
2021/01/02 10:47:30;;;;;;;11.48;7.55;;;307.60;1484.80;;;;;;5011224;28;20061;-65
2021/01/02 10:49:57;;;;;;;10.73;6.80;;;307.70;1433.60;;;;;;5013584;28;20339;-66
2021/01/02 10:52:26;;;;;;;14.02;8.93;;;307.80;1433.60;;;;;;5013538;28;20029;-66
2021/01/02 10:54:52;;;;;;;12.88;7.03;;;307.80;1433.60;;;;;;5013460;28;20018;-63
2021/01/02 10:57:20;;;;;;;12.93;7.35;;;307.80;1459.20;;;;;;5016000;28;20490;-65
2021/01/02 10:59:48;;;;;;;14.27;9.75;;;307.80;1433.60;;;;;;5015449;28;20430;-64
2021/01/02 11:02:15;;;;;;;28.77;13.43;;;308.00;1459.20;;;;;;5015806;28;20116;-65
2021/01/02 11:04:42;;;;;;;22.50;14.02;;;332.80;1382.40;;;;;;5016441;28;20033;-65
2021/01/02 11:07:09;;;;;;;24.60;13.98;;;332.90;1382.40;;;;;;5016331;28;20084;-64
2021/01/02 11:09:35;;;;;;;26.05;15.13;;;333.10;1356.80;;;;;;5014666;28;20049;-65
2021/01/02 11:12:01;;;;;;;31.60;19.55;;;333.30;1331.20;;;;;;5015515;28;20044;-65
2021/01/02 11:14:28;;;;;;;42.90;25.95;;;333.50;1305.60;;;;;;5016333;28;20022;-66
2021/01/02 11:16:55;;;;;;;14.48;10.90;;;333.60;1305.60;;;;;;5014735;28;20034;-65
2021/01/02 11:19:24;;;;;;;14.35;7.20;;;358.40;1280.00;;;;;;5015406;28;20029;-66
2021/01/02 11:21:50;;;;;;;;;;;358.60;1254.40;;;;;;5015504;28;20107;-67
2021/01/02 11:24:23;;;;;;;10.05;5.30;;;358.70;1254.40;;;;;;5014523;28;20003;-65
2021/01/02 11:26:51;;;;;;;14.77;8.32;;;359.10;1228.80;;;;;;5019514;28;20033;-64
2021/01/02 11:29:20;;;;;;;16.35;9.60;;;359.30;1203.20;;;;;;5020443;28;20176;-65
2021/01/02 11:31:46;;;;;;;13.60;8.30;;;384.40;1203.20;;;;;;5019179;28;20117;-64
2021/01/02 11:34:13;;;;;;;12.55;7.57;;;384.40;1203.20;;;;;;5020218;28;20029;-63
2021/01/02 11:36:40;;;;;;;10.85;6.32;;;384.60;1177.60;;;;;;5018837;28;20029;-66
2021/01/02 11:39:07;;;;;;;9.10;6.20;;;384.80;1152.00;;;;;;5018155;28;20412;-66
2021/01/02 11:41:36;;;;;;;18.90;8.73;;;409.80;1177.60;;;;;;5018055;28;20136;-65
2021/01/02 11:44:03;;;;;;;13.10;7.90;;;410.00;1177.60;;;;;;5018779;28;20061;-65
2021/01/02 11:46:34;;;;;;;18.60;10.05;;;410.40;1126.40;;;;;;5019676;28;20088;-63
2021/01/02 11:49:00;;;;;;;13.90;8.18;;;435.50;1126.40;;;;;;5017533;28;20080;-64
2021/01/02 11:51:27;;;;;;;8.70;4.65;;;435.40;1100.80;;;;;;5018495;28;20069;-66
2021/01/02 11:53:53;;;;;;;9.48;5.10;;;435.60;1100.80;;;;;;5017438;28;20022;-64
2021/01/02 11:56:22;;;;;;;15.55;9.40;;;435.90;1075.20;;;;;;5016543;28;20032;-63
2021/01/02 11:58:50;;;;;;;18.75;13.40;;;460.80;1075.20;;;;;;5018051;28;20021;-64
2021/01/02 12:01:16;;;;;;;63.65;40.00;;;461.00;1049.60;;;;;;5018459;28;20048;-64
2021/01/02 12:03:42;;;;;;;15.43;11.27;;;461.30;1049.60;;;;;;5018684;28;20038;-67
2021/01/02 12:06:08;;;;;;;17.85;12.52;;;461.50;1049.60;;;;;;5019076;28;20452;-64
2021/01/02 12:08:33;;;;;;;12.05;8.88;;;461.50;1024.00;;;;;;5018750;28;20407;-64
2021/01/02 12:10:59;;;;;;;32.55;17.98;;;461.60;1024.00;;;;;;5019652;28;20025;-64
2021/01/02 12:13:25;;;;;;;17.17;10.85;;;461.40;998.40;;;;;;5019230;28;20106;-65
2021/01/02 12:15:51;;;;;;;10.05;6.80;;;461.50;1024.00;;;;;;5019397;28;20327;-64
2021/01/02 12:18:17;;;;;;;40.65;28.65;;;486.40;998.40;;;;;;5018892;28;20382;-64
2021/01/02 12:20:45;;;;;;;16.55;10.90;;;486.60;972.80;;;;;;5017658;28;20390;-64
2021/01/02 12:23:10;;;;;;;15.60;10.30;;;486.70;972.80;;;;;;5018902;28;20061;-66
2021/01/02 12:25:36;;;;;;;58.30;47.00;;;487.00;947.20;;;;;;5019573;28;20056;-63
2021/01/02 12:28:02;;;;;;;15.60;12.15;;;512.00;947.20;;;;;;5018749;28;20077;-64